DAL377 KLAX-KLAS
Flight info
| Callsign | DAL377 |
|---|---|
| Flight time | N/A |
| Altitude | 29000 |
| Route | ORCKA5 MISEN RNDRZ4 |
| Aircraft | A320/M-SDE3FGHIRWY/LB1 |
Departure
| Time | 2026-05-05 21:36 |
|---|---|
| Airport | Los Angeles International Airport (KLAX) |
Arrival
| Time | N/A |
|---|---|
| Airport | Harry Reid International Airport (KLAS) |
| Time | Latitude | Longitude | Altitude | Speed | Heading |
|---|---|---|---|---|---|
| 2026-05-05 21:06 | 33.94702 | -118.40781 | 96 ft | 0 kts | 163° |
| 2026-05-05 21:28 | 33.94718 | -118.40787 | 98 ft | 4 kts | 154° |
| 2026-05-05 21:28 | 33.94740 | -118.40804 | 96 ft | 4 kts | 132° |
| 2026-05-05 21:29 | 33.94753 | -118.40831 | 96 ft | 4 kts | 100° |
| 2026-05-05 21:29 | 33.94755 | -118.40848 | 97 ft | 1 kts | 82° |
| 2026-05-05 21:32 | 33.94758 | -118.40818 | 97 ft | 7 kts | 82° |
| 2026-05-05 21:32 | 33.94765 | -118.40757 | 96 ft | 9 kts | 83° |
| 2026-05-05 21:32 | 33.94772 | -118.40684 | 96 ft | 8 kts | 83° |
| 2026-05-05 21:33 | 33.94790 | -118.40615 | 97 ft | 8 kts | 47° |
| 2026-05-05 21:33 | 33.94840 | -118.40600 | 98 ft | 6 kts | 11° |
| 2026-05-05 21:33 | 33.94869 | -118.40535 | 100 ft | 16 kts | 82° |
| 2026-05-05 21:33 | 33.94886 | -118.40381 | 100 ft | 18 kts | 81° |
| 2026-05-05 21:34 | 33.94900 | -118.40244 | 100 ft | 14 kts | 83° |
| 2026-05-05 21:34 | 33.94913 | -118.40130 | 100 ft | 13 kts | 82° |
| 2026-05-05 21:34 | 33.94924 | -118.40022 | 100 ft | 13 kts | 83° |
| 2026-05-05 21:34 | 33.94945 | -118.39930 | 101 ft | 10 kts | 47° |
| 2026-05-05 21:35 | 33.94994 | -118.39911 | 106 ft | 9 kts | 359° |
| 2026-05-05 21:35 | 33.95037 | -118.39948 | 109 ft | 11 kts | 292° |
| 2026-05-05 21:35 | 33.95035 | -118.40022 | 109 ft | 7 kts | 263° |
| 2026-05-05 21:35 | 33.95017 | -118.40192 | 110 ft | 52 kts | 262° |
| 2026-05-05 21:36 | 33.94942 | -118.40912 | 108 ft | 118 kts | 263° |
| 2026-05-05 21:36 | 33.94822 | -118.42069 | 354 ft | 147 kts | 262° |
| 2026-05-05 21:36 | 33.94695 | -118.43314 | 1057 ft | 152 kts | 263° |
| 2026-05-05 21:36 | 33.94571 | -118.44591 | 1946 ft | 157 kts | 261° |
| 2026-05-05 21:37 | 33.94443 | -118.45973 | 2445 ft | 180 kts | 262° |
| 2026-05-05 21:37 | 33.94291 | -118.47572 | 3078 ft | 204 kts | 262° |
| 2026-05-05 21:37 | 33.94103 | -118.49364 | 3576 ft | 227 kts | 262° |
| 2026-05-05 21:37 | 33.93889 | -118.51347 | 4084 ft | 250 kts | 262° |
| 2026-05-05 21:38 | 33.93653 | -118.53478 | 4905 ft | 260 kts | 262° |
| 2026-05-05 21:38 | 33.93224 | -118.55623 | 5776 ft | 269 kts | 246° |
| 2026-05-05 21:38 | 33.92090 | -118.57428 | 6632 ft | 278 kts | 219° |
| 2026-05-05 21:38 | 33.90341 | -118.58441 | 7483 ft | 285 kts | 191° |
| 2026-05-05 21:39 | 33.88357 | -118.58343 | 8313 ft | 291 kts | 161° |
| 2026-05-05 21:39 | 33.86618 | -118.57113 | 9146 ft | 294 kts | 131° |
| 2026-05-05 21:39 | 33.85576 | -118.55032 | 10005 ft | 292 kts | 102° |
| 2026-05-05 21:39 | 33.85475 | -118.52627 | 10770 ft | 290 kts | 74° |
| 2026-05-05 21:40 | 33.86315 | -118.50468 | 11512 ft | 288 kts | 47° |
| 2026-05-05 21:40 | 33.87820 | -118.48783 | 11925 ft | 306 kts | 37° |
| 2026-05-05 21:40 | 33.89538 | -118.47096 | 12186 ft | 330 kts | 37° |
| 2026-05-05 21:40 | 33.91371 | -118.45344 | 12714 ft | 342 kts | 36° |
| 2026-05-05 21:41 | 33.93117 | -118.43393 | 13410 ft | 352 kts | 46° |
| 2026-05-05 21:41 | 33.94607 | -118.41008 | 14122 ft | 360 kts | 53° |
| 2026-05-05 21:41 | 33.96033 | -118.38514 | 14820 ft | 364 kts | 53° |
| 2026-05-05 21:41 | 33.97463 | -118.35987 | 15520 ft | 367 kts | 54° |
| 2026-05-05 21:42 | 33.98903 | -118.33428 | 16221 ft | 370 kts | 54° |
| 2026-05-05 21:42 | 34.00352 | -118.30853 | 16922 ft | 373 kts | 53° |
| 2026-05-05 21:42 | 34.01819 | -118.28249 | 17598 ft | 377 kts | 54° |
| 2026-05-05 21:42 | 34.03299 | -118.25631 | 18274 ft | 380 kts | 54° |
| 2026-05-05 21:43 | 34.04798 | -118.22988 | 18889 ft | 383 kts | 53° |
| 2026-05-05 21:43 | 34.06304 | -118.20336 | 19512 ft | 385 kts | 54° |
| 2026-05-05 21:43 | 34.07821 | -118.17661 | 20144 ft | 387 kts | 53° |
| 2026-05-05 21:43 | 34.09348 | -118.14965 | 20779 ft | 390 kts | 53° |
| 2026-05-05 21:44 | 34.10809 | -118.12383 | 21398 ft | 393 kts | 53° |
| 2026-05-05 21:44 | 34.12405 | -118.09560 | 22104 ft | 396 kts | 54° |
| 2026-05-05 21:44 | 34.13961 | -118.06803 | 22740 ft | 399 kts | 54° |
| 2026-05-05 21:44 | 34.15526 | -118.04026 | 23315 ft | 401 kts | 54° |
| 2026-05-05 21:45 | 34.17100 | -118.01227 | 23831 ft | 404 kts | 54° |
| 2026-05-05 21:45 | 34.18681 | -117.98414 | 24289 ft | 406 kts | 54° |
| 2026-05-05 21:45 | 34.20273 | -117.95580 | 24727 ft | 409 kts | 54° |
| 2026-05-05 21:45 | 34.21831 | -117.92801 | 25137 ft | 411 kts | 54° |
| 2026-05-05 21:46 | 34.23442 | -117.89932 | 25550 ft | 413 kts | 54° |
| 2026-05-05 21:46 | 34.25057 | -117.87057 | 25981 ft | 415 kts | 54° |
| 2026-05-05 21:46 | 34.26684 | -117.84156 | 26393 ft | 418 kts | 54° |
| 2026-05-05 21:46 | 34.28314 | -117.81243 | 26788 ft | 420 kts | 54° |
| 2026-05-05 21:47 | 34.29954 | -117.78309 | 27180 ft | 422 kts | 54° |
| 2026-05-05 21:47 | 34.31604 | -117.75356 | 27578 ft | 424 kts | 54° |
| 2026-05-05 21:47 | 34.33257 | -117.72393 | 27961 ft | 426 kts | 54° |
| 2026-05-05 21:47 | 34.34921 | -117.69408 | 28333 ft | 428 kts | 54° |
| 2026-05-05 21:48 | 34.36618 | -117.66432 | 28691 ft | 431 kts | 53° |
| 2026-05-05 21:48 | 34.38368 | -117.63481 | 28952 ft | 432 kts | 52° |